createdAt,value
2017-09-06T00:00:36.626Z,8.03
2017-09-06T00:03:02.742Z,8.50
2017-09-06T00:05:28.857Z,7.97
2017-09-06T00:07:54.936Z,8.17
2017-09-06T00:10:21.058Z,9.20
2017-09-06T00:12:47.390Z,8.27
2017-09-06T00:15:13.513Z,8.30
2017-09-06T00:17:39.622Z,9.10
2017-09-06T00:20:05.715Z,8.33
2017-09-06T00:22:31.839Z,9.30
2017-09-06T00:24:57.935Z,8.03
2017-09-06T00:27:24.295Z,9.03
2017-09-06T00:29:50.388Z,9.20
2017-09-06T00:32:16.474Z,7.70
2017-09-06T00:34:42.643Z,9.00
2017-09-06T00:37:08.752Z,7.90
2017-09-06T00:39:34.858Z,8.43
2017-09-06T00:42:00.978Z,9.03
2017-09-06T00:44:27.071Z,9.10
2017-09-06T00:46:53.202Z,8.43
2017-09-06T00:49:19.258Z,8.20
2017-09-06T00:51:45.913Z,8.93
2017-09-06T00:54:12.016Z,8.17
2017-09-06T00:56:38.128Z,8.67
2017-09-06T00:59:04.254Z,8.60
2017-09-06T01:01:31.165Z,7.70
2017-09-06T01:03:57.281Z,8.40
2017-09-06T01:06:23.439Z,8.87
2017-09-06T01:08:49.561Z,8.80
2017-09-06T01:11:15.652Z,9.80
2017-09-06T01:13:41.769Z,8.37
2017-09-06T01:16:07.874Z,8.03
2017-09-06T01:18:33.982Z,8.57
2017-09-06T01:21:00.056Z,8.50
2017-09-06T01:23:26.119Z,8.83
2017-09-06T01:25:52.243Z,9.20
2017-09-06T01:28:18.365Z,7.97
2017-09-06T01:30:44.469Z,9.17
2017-09-06T01:33:10.560Z,9.13
2017-09-06T01:35:36.644Z,9.77
2017-09-06T01:38:02.777Z,9.63
2017-09-06T01:40:29.344Z,9.50
2017-09-06T01:42:55.445Z,10.10
2017-09-06T01:45:21.835Z,8.97
2017-09-06T01:47:47.920Z,9.43
2017-09-06T01:50:14.085Z,9.13
2017-09-06T01:52:40.211Z,9.87
2017-09-06T01:55:06.289Z,10.07
2017-09-06T01:57:32.397Z,9.53
2017-09-06T01:59:58.521Z,10.30
2017-09-06T02:02:24.631Z,9.40
2017-09-06T02:04:50.723Z,15.33
2017-09-06T02:07:16.803Z,14.13
2017-09-06T02:09:42.878Z,21.37
2017-09-06T02:12:09.012Z,14.70
2017-09-06T02:14:35.113Z,19.97
2017-09-06T02:17:01.219Z,21.77
2017-09-06T02:19:27.301Z,23.80
2017-09-06T02:21:53.379Z,25.70
2017-09-06T02:24:19.496Z,24.23
2017-09-06T02:26:45.602Z,23.77
2017-09-06T02:29:11.702Z,24.00
2017-09-06T02:31:37.806Z,21.83
2017-09-06T02:34:03.888Z,21.73
2017-09-06T02:36:29.961Z,21.50
2017-09-06T02:38:56.108Z,20.97
2017-09-06T02:41:22.212Z,20.40
2017-09-06T02:43:48.339Z,19.93
2017-09-06T02:46:14.426Z,19.23
2017-09-06T02:48:40.514Z,19.50
2017-09-06T02:51:06.610Z,20.77
2017-09-06T02:53:32.734Z,17.80
2017-09-06T02:55:58.817Z,16.30
2017-09-06T02:58:24.926Z,17.73
2017-09-06T03:00:51.009Z,15.67
2017-09-06T03:03:17.113Z,13.93
2017-09-06T03:05:43.236Z,14.97
2017-09-06T03:08:09.347Z,13.40
2017-09-06T03:10:35.435Z,12.17
2017-09-06T03:13:01.549Z,12.07
2017-09-06T03:15:27.641Z,11.90
2017-09-06T03:17:53.818Z,11.53
2017-09-06T03:20:20.018Z,10.77
2017-09-06T03:22:46.136Z,11.73
2017-09-06T03:25:12.262Z,11.23
2017-09-06T03:27:38.358Z,10.87
2017-09-06T03:30:04.445Z,11.33
2017-09-06T03:32:30.530Z,11.70
2017-09-06T03:34:56.610Z,10.00
2017-09-06T03:37:22.729Z,11.10
2017-09-06T03:39:48.829Z,10.67
2017-09-06T03:42:14.938Z,10.17
2017-09-06T03:44:41.052Z,11.43
2017-09-06T03:47:07.184Z,10.00
2017-09-06T03:49:33.313Z,11.47
2017-09-06T03:51:59.427Z,9.70
2017-09-06T03:54:25.540Z,9.07
2017-09-06T03:56:51.686Z,9.30
2017-09-06T03:59:17.766Z,9.10
2017-09-06T04:01:43.893Z,9.67
2017-09-06T04:04:09.976Z,8.80
2017-09-06T04:06:36.094Z,10.13
2017-09-06T04:09:02.204Z,9.30
2017-09-06T04:11:28.345Z,8.93
2017-09-06T04:13:54.456Z,9.47
2017-09-06T04:16:20.635Z,9.60
2017-09-06T04:18:46.809Z,8.53
2017-09-06T04:21:12.886Z,8.87
2017-09-06T04:23:39.009Z,8.60
2017-09-06T04:26:05.091Z,8.43
2017-09-06T04:28:31.153Z,8.07
2017-09-06T04:30:57.242Z,8.13
2017-09-06T04:33:23.334Z,8.30
2017-09-06T04:35:49.460Z,8.37
2017-09-06T04:38:15.543Z,8.13
2017-09-06T04:40:41.662Z,8.80
2017-09-06T04:43:07.768Z,9.37
2017-09-06T04:45:33.857Z,8.50
2017-09-06T04:47:59.966Z,9.60
2017-09-06T04:50:27.052Z,8.37
2017-09-06T04:52:53.109Z,7.73
2017-09-06T04:55:19.157Z,8.27
2017-09-06T04:57:45.294Z,9.20
2017-09-06T05:00:11.425Z,8.87
2017-09-06T05:02:37.609Z,8.13
2017-09-06T05:05:03.819Z,9.37
2017-09-06T05:07:29.900Z,8.90
2017-09-06T05:09:56.029Z,10.10
2017-09-06T05:12:22.174Z,8.60
2017-09-06T05:14:48.268Z,9.00
2017-09-06T05:17:14.361Z,8.67
2017-09-06T05:19:40.435Z,9.40
2017-09-06T05:22:06.525Z,7.10
2017-09-06T05:24:32.653Z,7.63
2017-09-06T05:26:58.770Z,8.07
2017-09-06T05:29:24.859Z,8.10
2017-09-06T05:31:50.929Z,7.93
2017-09-06T05:34:17.067Z,8.13
2017-09-06T05:36:43.187Z,7.90
2017-09-06T05:39:09.293Z,8.30
2017-09-06T05:41:35.344Z,7.70
2017-09-06T05:44:01.479Z,7.80
2017-09-06T05:46:27.564Z,7.67
2017-09-06T05:48:53.695Z,8.37
2017-09-06T05:51:19.824Z,8.93
2017-09-06T05:53:47.077Z,6.77
2017-09-06T05:56:13.202Z,7.37
2017-09-06T05:58:39.322Z,6.90
2017-09-06T06:01:05.449Z,8.60
2017-09-06T06:03:31.557Z,7.50
2017-09-06T06:05:57.623Z,7.30
2017-09-06T06:08:23.716Z,7.80
2017-09-06T06:10:49.794Z,8.20
2017-09-06T06:13:15.927Z,6.47
2017-09-06T06:15:42.014Z,7.93
2017-09-06T06:18:08.117Z,7.50
2017-09-06T06:20:34.196Z,9.50
2017-09-06T06:23:00.948Z,8.80
2017-09-06T06:25:27.046Z,6.87
2017-09-06T06:27:53.170Z,8.03
2017-09-06T06:30:19.284Z,8.17
2017-09-06T06:32:45.404Z,7.07
2017-09-06T06:35:11.536Z,7.83
2017-09-06T06:37:37.649Z,8.33
2017-09-06T06:40:03.716Z,7.60
2017-09-06T06:42:29.815Z,8.67
2017-09-06T06:44:55.959Z,7.67
2017-09-06T06:47:22.059Z,7.90
2017-09-06T06:49:48.155Z,7.00
2017-09-06T06:52:14.586Z,8.03
2017-09-06T06:54:40.715Z,8.57
2017-09-06T06:57:06.803Z,7.43
2017-09-06T06:59:32.919Z,7.87
2017-09-06T07:01:59.023Z,7.80
2017-09-06T07:04:25.090Z,8.13
2017-09-06T07:06:51.164Z,6.27
2017-09-06T07:09:17.281Z,7.60
2017-09-06T07:11:43.393Z,8.40
2017-09-06T07:14:09.512Z,7.47
2017-09-06T07:16:35.631Z,6.80
2017-09-06T07:19:01.719Z,8.00
2017-09-06T07:21:27.878Z,6.93
2017-09-06T07:23:53.970Z,8.33
2017-09-06T07:26:20.052Z,6.47
2017-09-06T07:28:46.137Z,7.27
2017-09-06T07:31:12.206Z,7.33
2017-09-06T07:33:38.326Z,7.73
2017-09-06T07:36:04.424Z,6.30
2017-09-06T07:38:30.516Z,7.23
2017-09-06T07:40:56.620Z,7.40
2017-09-06T07:43:22.731Z,8.87
2017-09-06T07:45:48.896Z,7.37
2017-09-06T07:48:14.993Z,7.80
2017-09-06T07:50:41.089Z,7.00
2017-09-06T07:53:07.180Z,7.23
2017-09-06T07:55:33.256Z,7.60
2017-09-06T07:57:59.351Z,6.67
2017-09-06T08:00:25.435Z,7.50
2017-09-06T08:02:51.833Z,6.00
2017-09-06T08:05:17.929Z,5.43
2017-09-06T08:07:50.133Z,4.87
2017-09-06T08:10:16.277Z,3.97
2017-09-06T08:12:42.379Z,3.80
2017-09-06T08:15:08.505Z,3.10
2017-09-06T08:17:34.563Z,2.97
2017-09-06T08:20:00.673Z,3.70
2017-09-06T08:22:26.758Z,3.33
2017-09-06T08:24:52.855Z,3.87
2017-09-06T08:27:18.971Z,2.93
2017-09-06T08:29:45.092Z,3.30
2017-09-06T08:32:11.169Z,2.97
2017-09-06T08:34:37.274Z,3.07
2017-09-06T08:37:03.412Z,2.80
2017-09-06T08:39:29.563Z,3.13
2017-09-06T08:41:55.719Z,3.50
2017-09-06T08:44:21.946Z,3.33
2017-09-06T08:46:48.019Z,2.20
2017-09-06T08:49:14.145Z,3.37
2017-09-06T08:51:40.249Z,2.90
2017-09-06T08:54:06.398Z,3.50
2017-09-06T08:56:32.505Z,2.80
2017-09-06T08:58:58.629Z,3.53
2017-09-06T09:01:24.774Z,3.23
2017-09-06T09:03:50.879Z,3.70
2017-09-06T09:06:17.026Z,4.10
2017-09-06T09:08:43.131Z,3.17
2017-09-06T09:11:09.265Z,3.30
2017-09-06T09:13:35.387Z,3.50
2017-09-06T09:16:01.504Z,3.20
2017-09-06T09:18:27.629Z,3.23
2017-09-06T09:20:53.714Z,3.03
2017-09-06T09:23:19.825Z,2.60
2017-09-06T09:25:45.919Z,2.80
2017-09-06T09:28:12.024Z,2.53
2017-09-06T09:30:38.111Z,2.83
2017-09-06T09:33:04.196Z,2.00
2017-09-06T09:35:30.293Z,2.63
2017-09-06T09:37:56.361Z,2.30
2017-09-06T09:40:22.445Z,1.60
2017-09-06T09:42:48.575Z,1.90
2017-09-06T09:45:14.681Z,2.00
2017-09-06T09:47:40.747Z,2.20
2017-09-06T09:50:06.878Z,1.63
2017-09-06T09:52:33.871Z,1.47
2017-09-06T09:54:59.975Z,1.97
2017-09-06T09:57:26.077Z,1.93
2017-09-06T09:59:52.929Z,1.97
2017-09-06T10:02:19.087Z,1.60
2017-09-06T10:04:45.207Z,1.50
2017-09-06T10:07:11.314Z,1.30
2017-09-06T10:09:37.400Z,1.20
2017-09-06T10:12:03.512Z,1.60
2017-09-06T10:14:29.628Z,1.40
2017-09-06T10:16:55.690Z,1.20
2017-09-06T10:19:21.790Z,1.63
2017-09-06T10:21:47.953Z,1.80
2017-09-06T10:24:14.453Z,1.53
2017-09-06T10:26:40.642Z,2.03
2017-09-06T10:29:06.794Z,2.20
2017-09-06T10:31:32.866Z,1.80
2017-09-06T10:33:59.008Z,1.60
2017-09-06T10:36:25.124Z,2.00
2017-09-06T10:38:51.227Z,2.20
2017-09-06T10:41:17.645Z,1.60
2017-09-06T10:43:43.902Z,1.70
2017-09-06T10:46:10.144Z,1.50
2017-09-06T10:48:36.406Z,1.73
2017-09-06T10:51:02.595Z,1.60
2017-09-06T10:53:28.713Z,2.27
2017-09-06T10:55:54.824Z,1.40
2017-09-06T10:58:20.942Z,2.70
2017-09-06T11:00:47.214Z,2.10
2017-09-06T11:03:13.350Z,1.97
2017-09-06T11:05:39.506Z,1.23
2017-09-06T11:08:05.593Z,1.70
2017-09-06T11:10:31.782Z,1.63
2017-09-06T11:12:57.904Z,1.63
2017-09-06T11:15:24.202Z,1.20
2017-09-06T11:17:50.318Z,1.50
2017-09-06T11:20:16.453Z,1.40
2017-09-06T11:22:42.600Z,1.47
2017-09-06T11:25:08.720Z,1.73
2017-09-06T11:27:34.819Z,1.63
2017-09-06T11:30:00.905Z,1.60
2017-09-06T11:32:27.129Z,1.53
2017-09-06T11:34:53.246Z,1.23
2017-09-06T11:37:19.456Z,1.53
2017-09-06T11:39:45.564Z,1.60
2017-09-06T11:42:11.702Z,1.70
2017-09-06T11:44:37.861Z,1.33
2017-09-06T11:47:03.970Z,1.47
2017-09-06T11:49:30.049Z,1.40
2017-09-06T11:51:56.181Z,1.53
2017-09-06T11:54:22.365Z,1.77
2017-09-06T11:56:48.475Z,1.60
2017-09-06T11:59:14.559Z,2.30
2017-09-06T12:01:41.470Z,2.37
2017-09-06T12:04:07.577Z,1.60
2017-09-06T12:06:33.720Z,2.13
2017-09-06T12:08:59.875Z,1.50
2017-09-06T12:11:26.007Z,2.07
2017-09-06T12:13:52.128Z,1.83
2017-09-06T12:16:18.253Z,1.60
2017-09-06T12:18:44.341Z,1.80
2017-09-06T12:21:10.508Z,2.10
2017-09-06T12:23:36.623Z,2.03
2017-09-06T12:26:03.683Z,2.20
2017-09-06T12:28:29.809Z,2.00
2017-09-06T12:30:55.924Z,1.90
2017-09-06T12:33:22.031Z,1.60
2017-09-06T12:35:55.319Z,1.87
2017-09-06T12:38:21.397Z,1.93
2017-09-06T12:40:47.549Z,1.80
2017-09-06T12:43:13.675Z,1.80
2017-09-06T12:45:39.764Z,1.53
2017-09-06T12:48:06.425Z,2.17
2017-09-06T12:50:32.528Z,1.97
2017-09-06T12:52:58.625Z,1.20
2017-09-06T12:55:24.781Z,2.90
2017-09-06T12:57:50.861Z,1.97
2017-09-06T13:00:16.938Z,1.80
2017-09-06T13:02:43.026Z,1.80
2017-09-06T13:05:09.154Z,1.30
2017-09-06T13:07:35.313Z,1.10
2017-09-06T13:10:01.444Z,0.73
2017-09-06T13:12:27.551Z,1.27
2017-09-06T13:14:53.694Z,0.90
2017-09-06T13:17:19.788Z,0.70
2017-09-06T13:19:45.942Z,0.90
2017-09-06T13:22:12.032Z,0.70
2017-09-06T13:24:38.153Z,0.60
2017-09-06T13:27:04.265Z,0.70
2017-09-06T13:29:30.378Z,0.90
2017-09-06T13:31:56.477Z,1.10
2017-09-06T13:34:22.606Z,1.00
2017-09-06T13:36:48.712Z,0.83
2017-09-06T13:39:14.814Z,1.30
2017-09-06T13:41:40.898Z,0.80
2017-09-06T13:44:06.984Z,1.03
2017-09-06T13:46:33.128Z,0.73
2017-09-06T13:49:00.192Z,0.80
2017-09-06T13:51:26.300Z,0.87
2017-09-06T13:53:52.397Z,0.90
2017-09-06T13:56:18.562Z,0.90
2017-09-06T13:58:44.736Z,0.97
2017-09-06T14:01:10.889Z,0.97
2017-09-06T14:03:37.023Z,1.00
2017-09-06T14:06:03.141Z,1.00
2017-09-06T14:08:29.209Z,1.20
2017-09-06T14:10:55.346Z,0.90
2017-09-06T14:13:21.439Z,0.90
2017-09-06T14:15:47.538Z,1.10
2017-09-06T14:18:13.647Z,0.93
2017-09-06T14:20:39.703Z,0.87
2017-09-06T14:23:05.819Z,0.70
2017-09-06T14:25:31.944Z,0.80
2017-09-06T14:27:58.049Z,0.70
2017-09-06T14:30:24.160Z,0.67
2017-09-06T14:32:50.270Z,0.63
2017-09-06T14:35:16.361Z,0.80
2017-09-06T14:37:42.485Z,0.90
2017-09-06T14:40:08.574Z,0.60
2017-09-06T14:42:34.693Z,0.70
2017-09-06T14:45:00.766Z,0.70
2017-09-06T14:47:26.858Z,0.60
2017-09-06T14:49:52.981Z,0.80
2017-09-06T14:52:19.095Z,0.90
2017-09-06T14:54:45.232Z,0.93
2017-09-06T14:57:11.362Z,0.77
2017-09-06T14:59:37.443Z,1.07
2017-09-06T15:02:03.774Z,0.97
2017-09-06T15:04:29.907Z,0.87
2017-09-06T15:06:56.004Z,0.70
2017-09-06T15:09:22.266Z,1.37
2017-09-06T15:11:48.581Z,1.10
2017-09-06T15:14:14.981Z,0.90
2017-09-06T15:16:41.473Z,1.20
2017-09-06T15:19:07.833Z,0.83
2017-09-06T15:21:34.136Z,0.97
2017-09-06T15:24:00.368Z,0.87
2017-09-06T15:26:26.499Z,0.80
2017-09-06T15:28:52.671Z,0.90
2017-09-06T15:31:18.977Z,0.70
2017-09-06T15:33:45.134Z,0.60
2017-09-06T15:36:11.253Z,0.60
2017-09-06T15:38:37.417Z,0.70
2017-09-06T15:41:03.547Z,1.60
2017-09-06T15:43:30.520Z,1.23
2017-09-06T15:45:56.645Z,2.37
2017-09-06T15:48:22.748Z,3.20
2017-09-06T15:50:48.863Z,2.70
2017-09-06T15:53:14.963Z,2.20
2017-09-06T15:55:41.060Z,3.03
2017-09-06T15:58:07.189Z,3.13
2017-09-06T16:00:33.305Z,3.00
2017-09-06T16:03:00.309Z,2.50
2017-09-06T16:05:26.416Z,3.27
2017-09-06T16:07:52.569Z,3.13
2017-09-06T16:10:18.753Z,3.90
2017-09-06T16:12:44.889Z,3.10
2017-09-06T16:15:10.996Z,3.40
2017-09-06T16:17:37.153Z,3.43
2017-09-06T16:20:03.265Z,4.50
2017-09-06T16:22:29.370Z,4.43
2017-09-06T16:24:55.454Z,4.90
2017-09-06T16:27:21.560Z,4.90
2017-09-06T16:29:47.715Z,5.00
2017-09-06T16:32:13.808Z,5.27
2017-09-06T16:34:39.972Z,6.30
2017-09-06T16:37:06.057Z,6.40
2017-09-06T16:39:32.217Z,6.20
2017-09-06T16:41:58.317Z,7.30
2017-09-06T16:44:24.469Z,7.80
2017-09-06T16:46:50.876Z,7.37
2017-09-06T16:49:17.000Z,7.90
2017-09-06T16:51:43.275Z,6.40
2017-09-06T16:54:09.491Z,5.77
2017-09-06T16:56:35.660Z,7.17
2017-09-06T16:59:01.780Z,6.80
2017-09-06T17:01:27.899Z,6.20
2017-09-06T17:03:54.001Z,6.00
2017-09-06T17:06:20.076Z,5.80
2017-09-06T17:08:46.256Z,7.20
2017-09-06T17:11:12.371Z,6.57
2017-09-06T17:13:38.463Z,7.10
2017-09-06T17:16:04.608Z,6.27
2017-09-06T17:18:30.718Z,6.40
2017-09-06T17:20:56.853Z,7.40
2017-09-06T17:23:22.978Z,6.50
2017-09-06T17:25:51.000Z,6.60
2017-09-06T17:28:17.104Z,6.67
2017-09-06T17:30:43.201Z,6.90
2017-09-06T17:33:09.285Z,6.03
2017-09-06T17:35:35.423Z,6.23
2017-09-06T17:38:01.529Z,5.57
2017-09-06T17:40:27.810Z,6.27
2017-09-06T17:42:53.901Z,5.47
2017-09-06T17:45:20.005Z,6.03
2017-09-06T17:47:46.137Z,5.40
2017-09-06T17:50:12.281Z,4.40
2017-09-06T17:52:38.405Z,5.00
2017-09-06T17:55:04.479Z,5.17
2017-09-06T17:57:30.554Z,4.93
2017-09-06T17:59:56.677Z,5.10
2017-09-06T18:02:22.775Z,4.70
2017-09-06T18:04:48.873Z,4.23
2017-09-06T18:07:14.993Z,4.73
2017-09-06T18:09:41.081Z,3.93
2017-09-06T18:12:07.281Z,5.40
2017-09-06T18:14:33.407Z,3.80
2017-09-06T18:16:59.527Z,3.80
2017-09-06T18:19:25.630Z,3.70
2017-09-06T18:21:51.703Z,3.20
2017-09-06T18:24:17.979Z,4.20
2017-09-06T18:26:44.045Z,4.00
2017-09-06T18:29:10.158Z,3.60
2017-09-06T18:31:36.270Z,4.00
2017-09-06T18:34:02.326Z,3.53
2017-09-06T18:36:28.450Z,4.10
2017-09-06T18:38:54.549Z,3.73
2017-09-06T18:41:20.684Z,3.70
2017-09-06T18:43:46.848Z,3.43
2017-09-06T18:46:13.017Z,3.73
2017-09-06T18:48:39.414Z,3.67
2017-09-06T18:51:05.539Z,3.50
2017-09-06T18:53:31.629Z,4.10
2017-09-06T18:55:57.917Z,4.07
2017-09-06T18:58:24.185Z,4.20
2017-09-06T19:00:50.390Z,4.77
2017-09-06T19:03:16.516Z,5.03
2017-09-06T19:05:42.618Z,4.87
2017-09-06T19:08:08.749Z,4.43
2017-09-06T19:10:34.843Z,3.97
2017-09-06T19:13:01.127Z,3.90
2017-09-06T19:15:27.867Z,3.87
2017-09-06T19:17:53.953Z,3.37
2017-09-06T19:20:20.236Z,3.03
2017-09-06T19:22:46.350Z,4.43
2017-09-06T19:25:12.451Z,4.77
2017-09-06T19:27:38.573Z,4.27
2017-09-06T19:30:04.676Z,6.40
2017-09-06T19:32:30.812Z,4.00
2017-09-06T19:34:56.932Z,3.67
2017-09-06T19:37:23.004Z,3.27
2017-09-06T19:39:49.128Z,3.70
2017-09-06T19:42:15.238Z,3.33
2017-09-06T19:44:41.314Z,3.40
2017-09-06T19:47:07.444Z,2.83
2017-09-06T19:49:33.544Z,2.50
2017-09-06T19:51:59.632Z,3.17
2017-09-06T19:54:25.748Z,3.03
2017-09-06T19:56:51.877Z,3.60
2017-09-06T19:59:17.988Z,3.30
2017-09-06T20:01:44.108Z,2.67
2017-09-06T20:04:10.255Z,2.80
2017-09-06T20:06:36.331Z,2.50
2017-09-06T20:09:02.468Z,2.87
2017-09-06T20:11:28.714Z,1.97
2017-09-06T20:13:54.778Z,3.50
2017-09-06T20:16:20.921Z,3.10
2017-09-06T20:18:47.083Z,3.40
2017-09-06T20:21:13.204Z,3.20
2017-09-06T20:23:39.280Z,2.40
2017-09-06T20:26:05.641Z,2.50
2017-09-06T20:28:32.535Z,3.33
2017-09-06T20:30:58.607Z,3.00
2017-09-06T20:33:24.764Z,2.83
2017-09-06T20:35:50.897Z,2.50
2017-09-06T20:38:17.024Z,2.27
2017-09-06T20:40:43.221Z,2.73
2017-09-06T20:43:09.297Z,2.20
2017-09-06T20:45:35.513Z,2.90
2017-09-06T20:48:01.630Z,3.23
2017-09-06T20:50:27.705Z,2.83
2017-09-06T20:52:53.840Z,2.30
2017-09-06T20:55:19.984Z,2.50
2017-09-06T20:57:46.074Z,2.40
2017-09-06T21:00:12.223Z,2.10
2017-09-06T21:02:38.349Z,1.87
2017-09-06T21:05:04.452Z,3.17
2017-09-06T21:07:30.608Z,2.53
2017-09-06T21:09:56.701Z,2.60
2017-09-06T21:12:22.816Z,2.57
2017-09-06T21:14:48.999Z,2.03
2017-09-06T21:17:15.098Z,2.87
2017-09-06T21:19:41.336Z,3.10
2017-09-06T21:22:07.474Z,1.97
2017-09-06T21:24:33.538Z,2.50
2017-09-06T21:26:59.713Z,2.57
2017-09-06T21:29:25.815Z,2.27
2017-09-06T21:31:51.913Z,2.07
2017-09-06T21:34:18.045Z,2.20
2017-09-06T21:36:44.169Z,2.00
2017-09-06T21:39:10.280Z,2.37
2017-09-06T21:41:36.358Z,2.63
2017-09-06T21:44:02.460Z,1.97
2017-09-06T21:46:28.538Z,1.63
2017-09-06T21:48:54.622Z,2.60
2017-09-06T21:51:20.778Z,2.17
2017-09-06T21:53:46.899Z,2.23
2017-09-06T21:56:12.995Z,1.50
2017-09-06T21:58:39.114Z,1.70
2017-09-06T22:01:05.184Z,2.50
2017-09-06T22:03:31.252Z,1.97
2017-09-06T22:05:57.410Z,1.97
2017-09-06T22:08:23.579Z,2.00
2017-09-06T22:10:49.670Z,1.87
2017-09-06T22:13:15.773Z,1.70
2017-09-06T22:15:41.873Z,2.37
2017-09-06T22:18:39.051Z,1.93
2017-09-06T22:21:05.217Z,1.73
2017-09-06T22:23:32.143Z,1.50
2017-09-06T22:25:58.246Z,1.93
2017-09-06T22:28:24.315Z,2.03
2017-09-06T22:30:50.399Z,2.23
2017-09-06T22:33:16.487Z,2.60
2017-09-06T22:35:43.345Z,2.83
2017-09-06T22:38:09.396Z,2.43
2017-09-06T22:40:35.682Z,1.83
2017-09-06T22:43:02.523Z,2.50
2017-09-06T22:45:29.377Z,1.80
2017-09-06T22:47:56.249Z,1.60
2017-09-06T22:50:22.353Z,1.53
2017-09-06T22:52:48.450Z,2.20
2017-09-06T22:55:14.531Z,2.40
2017-09-06T22:57:40.673Z,2.77
2017-09-06T23:00:06.784Z,1.77
2017-09-06T23:02:33.004Z,1.90
2017-09-06T23:04:59.082Z,1.97
2017-09-06T23:07:25.168Z,2.00
2017-09-06T23:09:51.268Z,2.13
2017-09-06T23:12:17.417Z,1.80
2017-09-06T23:14:43.516Z,2.10
2017-09-06T23:17:10.390Z,1.90
2017-09-06T23:19:36.541Z,2.47
2017-09-06T23:22:02.638Z,1.90
2017-09-06T23:24:28.738Z,2.97
2017-09-06T23:26:55.795Z,2.00
2017-09-06T23:29:21.927Z,1.83
2017-09-06T23:31:48.021Z,2.30
2017-09-06T23:34:14.086Z,2.00
2017-09-06T23:36:40.530Z,2.50
2017-09-06T23:39:06.629Z,2.27
2017-09-06T23:41:32.723Z,2.00
2017-09-06T23:43:58.790Z,2.50
2017-09-06T23:46:25.047Z,2.70
2017-09-06T23:48:51.149Z,3.10
2017-09-06T23:51:17.267Z,2.40
2017-09-06T23:53:43.387Z,2.67
2017-09-06T23:56:10.226Z,2.50
2017-09-06T23:58:37.041Z,2.17
